NCAR-RAP Real-Time Weather Data

Output produced by METARs form (06 May 2021  15:51 UTC)
found at http://weather.rap.ucar.edu/surface/
 
KLBB 061453Z 12021KT 10SM FEW300 18/03 A3032 RMK AO2 PK WND 12027/1439 SLP229 CONTRAILS FEW300 T01830033 51019
KLBB 061353Z 12016KT 10SM FEW260 16/04 A3031 RMK AO2 PK WND 11026/1344 SLP225 T01610044
KLBB 061253Z 10014KT 10SM CLR 13/05 A3029 RMK AO2 SLP219 T01280050
KLBB 061153Z 10014KT 10SM CLR 11/05 A3026 RMK AO2 SLP209 T01110050 10161 20111 51011
KLBB 061053Z 09015G26KT 10SM CLR 12/06 A3024 RMK AO2 PK WND 09026/1044 SLP204 T01170056
KLBB 060953Z 08015KT 10SM CLR 12/06 A3024 RMK AO2 SLP201 T01220056
KLBB 060853Z 07014KT 10SM FEW250 13/06 A3022 RMK AO2 SLP195 T01280061 51032
KLBB 060753Z 05014KT 10SM SCT250 14/07 A3019 RMK AO2 SLP185 T01390072
KLBB 060653Z 07009KT 10SM BKN250 14/08 A3015 RMK AO2 SLP173 BKN LYR THN T01440078
KLBB 060553Z 12009KT 10SM BKN250 16/08 A3012 RMK AO2 SLP161 BKN LYR THN T01610078 10272 20161 402780072 52020
KLBB 060453Z 13010KT 10SM SCT250 18/07 A3010 RMK AO2 SLP152 T01830072
KLBB 060353Z 15014KT 10SM CLR 20/08 A3008 RMK AO2 SLP144 T02000078
KLBB 060253Z 14012KT 10SM FEW250 22/07 A3006 RMK AO2 SLP139 T02170067 53006
KLBB 060153Z 15014KT 10SM FEW080 FEW250 24/06 A3004 RMK AO2 SLP134 T02390061
KLBB 060053Z 16017G22KT 10SM FEW080 26/06 A3003 RMK AO2 SLP132 T02610061